Terminal Aerodrome Forecast
Issued by NWS Jackson, MS

Home | Current Version | Previous Version | Text Only | Print | Product List | Glossary On
Versions: 1 2 3 4 5 6 7 8 9 10 11 12 13
267
FTUS44 KJAN 261720
TAFHBG
TAF
KHBG 261720Z 2618/2718 10005KT P6SM SCT050
     FM262200 10004KT P6SM VCTS BKN050CB
     FM270000 11003KT P6SM FEW050 SCT250
     FM271000 00000KT 5SM BR BKN050
     FM271200 00000KT 1SM BR FEW015 SCT250
     FM271500 02003KT P6SM FEW090=

USA.gov is the U.S. government's official web portal to all federal, state and local government web resources and services.